Observation data for Wolfforth on 12/09/2018      Previous  Date  Next       Current Mesonet Observations  Soil Data  Daily Summary Page  Observations in Plain Language
KWOS 090600Z 34001KT M08/M09 A303 RMK A01 T10801088  RH  094%=      5-min Rain = 0
KWOS 090605Z 34003KT M08/M09 A303 RMK A01 T10831090  RH  094%=      5-min Rain = 0
KWOS 090610Z 33003KT M08/M09 A303 RMK A01 T10811088  RH  095%=      5-min Rain = 0
KWOS 090615Z 33003KT M08/M09 A303 RMK A01 T10791085  RH  095%=      5-min Rain = 0
KWOS 090620Z 34002KT M08/M09 A303 RMK A01 T10791085  RH  095%=      5-min Rain = 0
KWOS 090625Z 32002KT M08/M08 A303 RMK A01 T10781084  RH  095%=      5-min Rain = 0
KWOS 090630Z 31003KT M08/M08 A3031 RMK A01 T10781084  RH  095%=      5-min Rain = 0
KWOS 090635Z 30003KT M08/M08 A303 RMK A01 T10781084  RH  095%=      5-min Rain = 0
KWOS 090640Z 32003KT M08/M09 A303 RMK A01 T10791085  RH  095%=      5-min Rain = 0
KWOS 090645Z 33002KT M08/M09 A303 RMK A01 T10801086  RH  095%=      5-min Rain = 0
KWOS 090650Z 33002KT M08/M09 A303 RMK A01 T10811087  RH  095%=      5-min Rain = 0
KWOS 090655Z 32003KT M08/M09 A303 RMK A01 T10811088  RH  095%=      5-min Rain = 0
KWOS 090700Z 35002KT M08/M09 A303 RMK A01 T10821089  RH  095%=      5-min Rain = 0
KWOS 090705Z 34003KT M08/M09 A303 RMK A01 T10831089  RH  095%=      5-min Rain = 0
KWOS 090710Z 34003KT M08/M09 A3029 RMK A01 T10831089  RH  095%=      5-min Rain = 0
KWOS 090715Z 35003KT M08/M09 A3029 RMK A01 T10831089  RH  095%=      5-min Rain = 0
KWOS 090720Z 35003KT M08/M09 A3029 RMK A01 T10831090  RH  095%=      5-min Rain = 0
KWOS 090725Z 33003KT M08/M09 A3029 RMK A01 T10841091  RH  095%=      5-min Rain = 0
KWOS 090730Z 33003KT M09/M09 A3029 RMK A01 T10851091  RH  095%=      5-min Rain = 0
KWOS 090735Z 34003KT M09/M09 A3029 RMK A01 T10861093  RH  094%=      5-min Rain = 0
KWOS 090740Z 35003KT M09/M09 A3028 RMK A01 T10861093  RH  094%=      5-min Rain = 0
KWOS 090745Z 36003KT M09/M09 A3028 RMK A01 T10871094  RH  094%=      5-min Rain = 0
KWOS 090750Z 35003KT M09/M10 A3028 RMK A01 T10881096  RH  094%=      5-min Rain = 0
KWOS 090755Z 36004KT M09/M10 A3028 RMK A01 T10901097  RH  094%=      5-min Rain = 0
KWOS 090800Z 34004KT M09/M10 A3029 RMK A01 T10901097  RH  094%=      5-min Rain = 0
KWOS 090805Z 35004KT M09/M10 A3029 RMK A01 T10911099  RH  094%=      5-min Rain = 0
KWOS 090810Z 35004KT M09/M10 A3028 RMK A01 T10921099  RH  094%=      5-min Rain = 0
KWOS 090815Z 35004KT M09/M10 A3028 RMK A01 T10921099  RH  094%=      5-min Rain = 0
KWOS 090820Z 34004KT M09/M10 A3029 RMK A01 T10921099  RH  094%=      5-min Rain = 0
KWOS 090825Z 34003KT M09/M10 A3029 RMK A01 T10921099  RH  094%=      5-min Rain = 0
KWOS 090830Z 35004KT M09/M10 A3029 RMK A01 T10921100  RH  094%=      5-min Rain = 0
KWOS 090835Z 00004KT M09/M10 A3028 RMK A01 T10931100  RH  094%=      5-min Rain = 0
KWOS 090840Z 35004KT M09/M10 A3028 RMK A01 T10921100  RH  094%=      5-min Rain = 0
KWOS 090845Z 34004KT M09/M10 A3028 RMK A01 T10921099  RH  094%=      5-min Rain = 0
KWOS 090850Z 33003KT M09/M10 A3028 RMK A01 T10941101  RH  094%=      5-min Rain = 0
KWOS 090855Z 34003KT M09/M10 A3028 RMK A01 T10941102  RH  094%=      5-min Rain = 0
KWOS 090900Z 33004KT M09/M10 A3028 RMK A01 T10941102  RH  094%=      5-min Rain = 0
KWOS 090905Z 33004KT M10/M10 A3029 RMK A01 T10951102  RH  094%=      5-min Rain = 0
KWOS 090910Z 32004KT M09/M10 A3028 RMK A01 T10941102  RH  094%=      5-min Rain = 0
KWOS 090915Z 32004KT M09/M10 A3028 RMK A01 T10931101  RH  094%=      5-min Rain = 0
KWOS 090920Z 33004KT M09/M10 A3029 RMK A01 T10931100  RH  094%=      5-min Rain = 0
KWOS 090925Z 32004KT M09/M10 A3029 RMK A01 T10931100  RH  094%=      5-min Rain = 0
KWOS 090930Z 31003KT M09/M10 A3029 RMK A01 T10931101  RH  094%=      5-min Rain = 0
KWOS 090935Z 32003KT M09/M10 A3029 RMK A01 T10931100  RH  094%=      5-min Rain = 0
KWOS 090940Z 33004KT M09/M10 A3029 RMK A01 T10911098  RH  094%=      5-min Rain = 0
KWOS 090945Z 33004KT M09/M10 A3029 RMK A01 T10901097  RH  094%=      5-min Rain = 0
KWOS 090950Z 33005KT M09/M10 A3029 RMK A01 T10901097  RH  094%=      5-min Rain = 0
KWOS 090955Z 33005KT M09/M10 A3029 RMK A01 T10891096  RH  094%=      5-min Rain = 0
KWOS 091000Z 34005KT M09/M10 A3028 RMK A01 T10881095  RH  094%=      5-min Rain = 0
KWOS 091005Z 34005KT M09/M10 A3028 RMK A01 T10891096  RH  094%=      5-min Rain = 0
KWOS 091010Z 34005KT M09/M09 A3028 RMK A01 T10871094  RH  095%=      5-min Rain = 0
KWOS 091015Z 34004KT M09/M10 A3028 RMK A01 T10881095  RH  094%=      5-min Rain = 0
KWOS 091020Z 33005KT M09/M10 A3028 RMK A01 T10881095  RH  094%=      5-min Rain = 0
KWOS 091025Z 33005KT M09/M09 A3028 RMK A01 T10871094  RH  095%=      5-min Rain = 0
KWOS 091030Z 33005KT M09/M09 A3028 RMK A01 T10871093  RH  095%=      5-min Rain = 0
KWOS 091035Z 33004KT M09/M09 A3028 RMK A01 T10871094  RH  095%=      5-min Rain = 0
KWOS 091040Z 33005KT M09/M09 A3029 RMK A01 T10871093  RH  095%=      5-min Rain = 0
KWOS 091045Z 33005KT M09/M09 A3029 RMK A01 T10871093  RH  095%=      5-min Rain = 0
KWOS 091050Z 33004KT M09/M09 A3029 RMK A01 T10861093  RH  095%=      5-min Rain = 0
KWOS 091055Z 33004KT M09/M09 A3029 RMK A01 T10861092  RH  095%=      5-min Rain = 0
KWOS 091100Z 33004KT M08/M09 A3029 RMK A01 T10841091  RH  095%=      5-min Rain = 0
KWOS 091105Z 32002KT M08/M09 A3029 RMK A01 T10841091  RH  095%=      5-min Rain = 0
KWOS 091110Z 32003KT M09/M09 A3029 RMK A01 T10851092  RH  095%=      5-min Rain = 0
KWOS 091115Z 32003KT M09/M09 A3029 RMK A01 T10851092  RH  095%=      5-min Rain = 0
KWOS 091120Z 33003KT M09/M09 A3029 RMK A01 T10851092  RH  095%=      5-min Rain = 0
KWOS 091125Z 33003KT M09/M09 A3029 RMK A01 T10861093  RH  095%=      5-min Rain = 0
KWOS 091130Z 33003KT M09/M09 A303 RMK A01 T10861093  RH  094%=      5-min Rain = 0
KWOS 091135Z 33003KT M09/M09 A303 RMK A01 T10871094  RH  094%=      5-min Rain = 0
KWOS 091140Z 33003KT M09/M09 A303 RMK A01 T10871094  RH  094%=      5-min Rain = 0
KWOS 091145Z 33004KT M09/M09 A303 RMK A01 T10871094  RH  095%=      5-min Rain = 0
KWOS 091150Z 33004KT M09/M09 A303 RMK A01 T10871094  RH  095%=      5-min Rain = 0
KWOS 091155Z 33004KT M09/M09 A3031 RMK A01 T10871094  RH  095%=      5-min Rain = 0
KWOS 091200Z 34004KT M09/M09 A3031 RMK A01 T10871094  RH  095%=      5-min Rain = 0
KWOS 091205Z 34004KT M09/M09 A3031 RMK A01 T10871094  RH  094%=      5-min Rain = 0
KWOS 091210Z 34003KT M09/M10 A3031 RMK A01 T10881095  RH  094%=      5-min Rain = 0
KWOS 091215Z 33003KT M09/M10 A3031 RMK A01 T10891096  RH  094%=      5-min Rain = 0
KWOS 091220Z 33003KT M09/M10 A3031 RMK A01 T10901097  RH  094%=      5-min Rain = 0
KWOS 091225Z 32003KT M09/M10 A3032 RMK A01 T10901098  RH  094%=      5-min Rain = 0
KWOS 091230Z 32003KT M09/M10 A3032 RMK A01 T10901097  RH  094%=      5-min Rain = 0
KWOS 091235Z 32003KT M09/M10 A3032 RMK A01 T10911098  RH  094%=      5-min Rain = 0
KWOS 091240Z 32003KT M09/M10 A3032 RMK A01 T10911098  RH  094%=      5-min Rain = 0
KWOS 091245Z 32003KT M09/M10 A3032 RMK A01 T10891096  RH  095%=      5-min Rain = 0
KWOS 091250Z 33004KT M09/M09 A3032 RMK A01 T10861093  RH  095%=      5-min Rain = 0
KWOS 091255Z 33004KT M09/M09 A3032 RMK A01 T10861092  RH  095%=      5-min Rain = 0
KWOS 091300Z 33004KT M09/M09 A3032 RMK A01 T10861093  RH  094%=      5-min Rain = 0
KWOS 091305Z 33003KT M09/M09 A3032 RMK A01 T10861093  RH  095%=      5-min Rain = 0
KWOS 091310Z 32004KT M09/M09 A3033 RMK A01 T10871094  RH  094%=      5-min Rain = 0
KWOS 091315Z 32004KT M09/M10 A3033 RMK A01 T10881095  RH  094%=      5-min Rain = 0
KWOS 091320Z 32004KT M09/M10 A3033 RMK A01 T10881095  RH  094%=      5-min Rain = 0
KWOS 091325Z 32003KT M09/M10 A3033 RMK A01 T10891096  RH  094%=      5-min Rain = 0
KWOS 091330Z 32004KT M09/M10 A3034 RMK A01 T10891096  RH  094%=      5-min Rain = 0
KWOS 091335Z 32003KT M09/M10 A3034 RMK A01 T10881095  RH  094%=      5-min Rain = 0
KWOS 091340Z 32003KT M09/M10 A3034 RMK A01 T10881095  RH  094%=      5-min Rain = 0
KWOS 091345Z 31002KT M09/M10 A3034 RMK A01 T10891096  RH  094%=      5-min Rain = 0
KWOS 091350Z 30003KT M09/M10 A3034 RMK A01 T10891096  RH  094%=      5-min Rain = 0
KWOS 091355Z 30003KT M09/M10 A3035 RMK A01 T10881095  RH  094%=      5-min Rain = 0
KWOS 091400Z 32003KT M09/M09 A3035 RMK A01 T10871094  RH  095%=      5-min Rain = 0
KWOS 091405Z 31003KT M09/M09 A3035 RMK A01 T10871093  RH  095%=      5-min Rain = 0
KWOS 091410Z 32003KT M09/M09 A3035 RMK A01 T10851091  RH  095%=      5-min Rain = 0
KWOS 091415Z 32003KT M08/M09 A3035 RMK A01 T10821088  RH  095%=      5-min Rain = 0
KWOS 091420Z 32003KT M08/M08 A3035 RMK A01 T10791084  RH  096%=      5-min Rain = 0
KWOS 091425Z 32004KT M08/M08 A3035 RMK A01 T10761081  RH  096%=      5-min Rain = 0
KWOS 091430Z 32004KT M07/M08 A3036 RMK A01 T10731079  RH  096%=      5-min Rain = 0
KWOS 091435Z 32004KT M07/M08 A3036 RMK A01 T10711076  RH  096%=      5-min Rain = 0
KWOS 091440Z 32004KT M07/M07 A3036 RMK A01 T10691074  RH  096%=      5-min Rain = 0
KWOS 091445Z 33003KT M07/M07 A3035 RMK A01 T10661071  RH  096%=      5-min Rain = 0
KWOS 091450Z 33003KT M06/M07 A3036 RMK A01 T10641069  RH  097%=      5-min Rain = 0
KWOS 091455Z 33003KT M06/M07 A3036 RMK A01 T10621067  RH  097%=      5-min Rain = 0
KWOS 091500Z 32004KT M06/M06 A3036 RMK A01 T10601064  RH  097%=      5-min Rain = 0
KWOS 091505Z 32004KT M06/M06 A3037 RMK A01 T10571061  RH  097%=      5-min Rain = 0
KWOS 091510Z 32004KT M06/M06 A3037 RMK A01 T10551059  RH  097%=      5-min Rain = 0
KWOS 091515Z 32003KT M05/M06 A3037 RMK A01 T10531056  RH  098%=      5-min Rain = 0
KWOS 091520Z 32004KT M05/M05 A3037 RMK A01 T10511054  RH  098%=      5-min Rain = 0
KWOS 091525Z 33005KT M05/M05 A3037 RMK A01 T10501054  RH  098%=      5-min Rain = 0
KWOS 091530Z 33004KT M05/M05 A3037 RMK A01 T10491053  RH  098%=      5-min Rain = 0
KWOS 091535Z 32004KT M05/M05 A3038 RMK A01 T10481051  RH  098%=      5-min Rain = 0
KWOS 091540Z 32004KT M05/M05 A3038 RMK A01 T10471050  RH  098%=      5-min Rain = 0
KWOS 091545Z 32004KT M04/M05 A3038 RMK A01 T10441047  RH  098%=      5-min Rain = 0
KWOS 091550Z 32003KT M04/M05 A3039 RMK A01 T10421045  RH  098%=      5-min Rain = 0
KWOS 091555Z 32004KT M04/M04 A3039 RMK A01 T10401043  RH  098%=      5-min Rain = 0
KWOS 091600Z 32003KT M04/M04 A3039 RMK A01 T10381041  RH  099%=      5-min Rain = 0
KWOS 091605Z 32003KT M04/M04 A3039 RMK A01 T10371040  RH  099%=      5-min Rain = 0
KWOS 091610Z 32003KT M04/M04 A304 RMK A01 T10361038  RH  099%=      5-min Rain = 0
KWOS 091615Z 33003KT M03/M04 A304 RMK A01 T10341036  RH  099%=      5-min Rain = 0
KWOS 091620Z 33004KT M03/M03 A304 RMK A01 T10321034  RH  099%=      5-min Rain = 0
KWOS 091625Z 33004KT M03/M03 A304 RMK A01 T10321034  RH  099%=      5-min Rain = 0
KWOS 091630Z 34003KT M03/M03 A3039 RMK A01 T10311033  RH  099%=      5-min Rain = 0
KWOS 091635Z 34004KT M03/M03 A3039 RMK A01 T10291031  RH  099%=      5-min Rain = 0
KWOS 091640Z 33003KT M03/M03 A3039 RMK A01 T10281030  RH  099%=      5-min Rain = 0
KWOS 091645Z 32003KT M03/M03 A3039 RMK A01 T10261027  RH  099%=      5-min Rain = 0
KWOS 091650Z 33004KT M02/M03 A3039 RMK A01 T10241026  RH  100%=      5-min Rain = 0
KWOS 091655Z 35005KT M02/M03 A3039 RMK A01 T10241025  RH  100%=      5-min Rain = 0
KWOS 091700Z 34004KT M02/M02 A3039 RMK A01 T10221023  RH  100%=      5-min Rain = 0.01
KWOS 091705Z 35004KT M02/M02 A3039 RMK A01 T10201022  RH  100%=      5-min Rain = 0
KWOS 091710Z 35005KT M02/M02 A3039 RMK A01 T10191020  RH  100%=      5-min Rain = 0
KWOS 091715Z 35005KT M02/M02 A3039 RMK A01 T10201021  RH  100%=      5-min Rain = 0
KWOS 091720Z 36005KT M02/M02 A3039 RMK A01 T10181020  RH  100%=      5-min Rain = 0
KWOS 091725Z 36006KT M02/M02 A3039 RMK A01 T10191021  RH  100%=      5-min Rain = 0
KWOS 091730Z 35006KT M02/M02 A3039 RMK A01 T10211023  RH  099%=      5-min Rain = 0
KWOS 091735Z 35005KT M02/M02 A3039 RMK A01 T10201022  RH  100%=      5-min Rain = 0
KWOS 091740Z 35003KT M02/M02 A3039 RMK A01 T10181019  RH  100%=      5-min Rain = 0.01
KWOS 091745Z 34003KT M02/M02 A3039 RMK A01 T10161017  RH  100%=      5-min Rain = 0
KWOS 091750Z 34002KT M02/M02 A3039 RMK A01 T10151017  RH  099%=      5-min Rain = 0
KWOS 091755Z 33003KT M01/M02 A3039 RMK A01 T10141016  RH  099%=      5-min Rain = 0.01
KWOS 091800Z 33004KT M01/M02 A3039 RMK A01 T10131015  RH  099%=      5-min Rain = 0
KWOS 091805Z 33003KT M01/M02 A3038 RMK A01 T10121015  RH  099%=      5-min Rain = 0
KWOS 091810Z 32002KT M01/M01 A3038 RMK A01 T10121014  RH  099%=      5-min Rain = 0.01
KWOS 091815Z 32001KT M01/M01 A3038 RMK A01 T10071009  RH  099%=      5-min Rain = 0
KWOS 091820Z 32002KT M01/M01 A3038 RMK A01 T10061010  RH  099%=      5-min Rain = 0
KWOS 091825Z 35002KT M01/M01 A3037 RMK A01 T10071012  RH  098%=      5-min Rain = 0.01
KWOS 091830Z 02002KT M01/M01 A3037 RMK A01 T10051010  RH  097%=      5-min Rain = 0
KWOS 091835Z 34002KT M01/M01 A3037 RMK A01 T10051012  RH  096%=      5-min Rain = 0
KWOS 091840Z 33003KT M00/M01 A3036 RMK A01 T10031012  RH  095%=      5-min Rain = 0
KWOS 091845Z 33002KT M00/M01 A3036 RMK A01 T10021012  RH  093%=      5-min Rain = 0
KWOS 091850Z 33002KT 00/01 A3036 RMK A01 T00-00-14  RH  092%=      5-min Rain = 0
KWOS 091855Z 34002KT 00/M02 A3036 RMK A01 T00011015  RH  090%=      5-min Rain = 0.01
KWOS 091900Z 34003KT 00/M02 A3035 RMK A01 T00021017  RH  088%=      5-min Rain = 0
KWOS 091905Z 35003KT 00/M02 A3035 RMK A01 T00041018  RH  086%=      5-min Rain = 0.01
KWOS 091910Z 00002KT 01/M02 A3035 RMK A01 T00061019  RH  084%=      5-min Rain = 0
KWOS 091915Z 34003KT 01/M02 A3035 RMK A01 T00071020  RH  083%=      5-min Rain = 0
KWOS 091920Z 33002KT 01/M02 A3035 RMK A01 T00081020  RH  082%=      5-min Rain = 0
KWOS 091925Z 32002KT 01/M02 A3035 RMK A01 T00111020  RH  081%=      5-min Rain = 0.01
KWOS 091930Z 30001KT 01/M02 A3035 RMK A01 T00131019  RH  080%=      5-min Rain = 0
KWOS 091935Z 31002KT 02/M02 A3035 RMK A01 T00161019  RH  078%=      5-min Rain = 0
KWOS 091940Z 33002KT 02/M02 A3035 RMK A01 T00161020  RH  078%=      5-min Rain = 0.01
KWOS 091945Z 35004KT 02/M02 A3034 RMK A01 T00151021  RH  077%=      5-min Rain = 0
KWOS 091950Z 35003KT 02/M02 A3034 RMK A01 T00151021  RH  077%=      5-min Rain = 0.01
KWOS 091955Z 35002KT 02/M02 A3034 RMK A01 T00161021  RH  077%=      5-min Rain = 0
KWOS 092000Z 34002KT 02/M02 A3034 RMK A01 T00181021  RH  076%=      5-min Rain = 0
KWOS 092005Z 34002KT 02/M02 A3034 RMK A01 T00201021  RH  075%=      5-min Rain = 0.01
KWOS 092010Z 33002KT 02/M02 A3034 RMK A01 T00201022  RH  074%=      5-min Rain = 0
KWOS 092015Z 29001KT 02/M02 A3034 RMK A01 T00231022  RH  073%=      5-min Rain = 0
KWOS 092020Z 34002KT 03/M02 A3034 RMK A01 T00251024  RH  070%=      5-min Rain = 0
KWOS 092025Z 33002KT 02/M02 A3034 RMK A01 T00241024  RH  071%=      5-min Rain = 0
KWOS 092030Z 34001KT 03/M02 A3034 RMK A01 T00261024  RH  070%=      5-min Rain = 0
KWOS 092035Z 32002KT 03/M02 A3034 RMK A01 T00261024  RH  070%=      5-min Rain = 0.01
KWOS 092040Z 32002KT 03/M03 A3034 RMK A01 T00271025  RH  069%=      5-min Rain = 0
KWOS 092045Z 32002KT 03/M03 A3034 RMK A01 T00271026  RH  068%=      5-min Rain = 0
KWOS 092050Z 31002KT 03/M03 A3034 RMK A01 T00281027  RH  068%=      5-min Rain = 0.01
KWOS 092055Z 30002KT 03/M03 A3034 RMK A01 T00281025  RH  068%=      5-min Rain = 0
KWOS 092100Z 31003KT 03/M03 A3034 RMK A01 T00291025  RH  068%=      5-min Rain = 0
KWOS 092105Z 32003KT 03/M02 A3034 RMK A01 T00301024  RH  068%=      5-min Rain = 0.01
KWOS 092110Z 31003KT 03/M03 A3034 RMK A01 T00301025  RH  068%=      5-min Rain = 0
KWOS 092115Z 32003KT 03/M02 A3034 RMK A01 T00311024  RH  068%=      5-min Rain = 0
KWOS 092120Z 31003KT 03/M02 A3034 RMK A01 T00311023  RH  068%=      5-min Rain = 0
KWOS 092125Z 33002KT 03/M02 A3034 RMK A01 T00321024  RH  067%=      5-min Rain = 0.01
KWOS 092130Z 32003KT 03/M02 A3034 RMK A01 T00321021  RH  068%=      5-min Rain = 0
KWOS 092135Z 30003KT 03/M02 A3033 RMK A01 T00321023  RH  068%=      5-min Rain = 0
KWOS 092140Z 31003KT 03/M03 A3033 RMK A01 T00321025  RH  067%=      5-min Rain = 0
KWOS 092145Z 31003KT 03/M02 A3033 RMK A01 T00321023  RH  068%=      5-min Rain = 0
KWOS 092150Z 30004KT 03/M02 A3033 RMK A01 T00321023  RH  068%=      5-min Rain = 0.01
KWOS 092155Z 30003KT 03/M02 A3033 RMK A01 T00321022  RH  068%=      5-min Rain = 0
KWOS 092200Z 29003KT 03/M02 A3034 RMK A01 T00331020  RH  069%=      5-min Rain = 0
KWOS 092205Z 30003KT 03/M02 A3034 RMK A01 T00331019  RH  069%=      5-min Rain = 0
KWOS 092210Z 31003KT 03/M02 A3034 RMK A01 T00321019  RH  070%=      5-min Rain = 0.01
KWOS 092215Z 31003KT 03/M02 A3034 RMK A01 T00321019  RH  070%=      5-min Rain = 0
KWOS 092220Z 32003KT 03/M02 A3034 RMK A01 T00321019  RH  070%=      5-min Rain = 0
KWOS 092225Z 34003KT 03/M02 A3034 RMK A01 T00301017  RH  072%=      5-min Rain = 0
KWOS 092230Z 34004KT 03/M02 A3034 RMK A01 T00301017  RH  072%=      5-min Rain = 0
KWOS 092235Z 34003KT 03/M02 A3034 RMK A01 T00301015  RH  073%=      5-min Rain = 0
KWOS 092240Z 34003KT 03/M02 A3034 RMK A01 T00301015  RH  073%=      5-min Rain = 0
KWOS 092245Z 34004KT 03/M02 A3034 RMK A01 T00281016  RH  073%=      5-min Rain = 0.01
KWOS 092250Z 33003KT 03/M02 A3034 RMK A01 T00281018  RH  072%=      5-min Rain = 0
KWOS 092255Z 34003KT 03/M02 A3034 RMK A01 T00271019  RH  072%=      5-min Rain = 0
KWOS 092300Z 35003KT 03/M02 A3034 RMK A01 T00261019  RH  073%=      5-min Rain = 0
KWOS 092305Z 35003KT 02/M02 A3034 RMK A01 T00241020  RH  074%=      5-min Rain = 0
KWOS 092310Z 35003KT 02/M02 A3034 RMK A01 T00231021  RH  074%=      5-min Rain = 0
KWOS 092315Z 34003KT 02/M02 A3034 RMK A01 T00221022  RH  073%=      5-min Rain = 0
KWOS 092320Z 34003KT 02/M02 A3034 RMK A01 T00201022  RH  074%=      5-min Rain = 0
KWOS 092325Z 34004KT 02/M02 A3034 RMK A01 T00171021  RH  076%=      5-min Rain = 0
KWOS 092330Z 34004KT 01/M02 A3034 RMK A01 T00141020  RH  078%=      5-min Rain = 0
KWOS 092335Z 33004KT 01/M02 A3034 RMK A01 T00121020  RH  080%=      5-min Rain = 0
KWOS 092340Z 33003KT 01/M02 A3034 RMK A01 T00101020  RH  081%=      5-min Rain = 0
KWOS 092345Z 32003KT 01/M02 A3034 RMK A01 T00081020  RH  082%=      5-min Rain = 0
KWOS 092350Z 31002KT 01/M02 A3034 RMK A01 T00081020  RH  083%=      5-min Rain = 0
KWOS 092355Z 29002KT 01/M02 A3034 RMK A01 T00071018  RH  084%=      5-min Rain = 0
KWOS 100000Z 28002KT 00/M02 A3034 RMK A01 T00031023  RH  084%=      5-min Rain = 0
KWOS 100005Z 30002KT M00/M03 A3034 RMK A01 T10021025  RH  085%=      5-min Rain = 0
KWOS 100010Z 30002KT M01/M03 A3034 RMK A01 T10051025  RH  087%=      5-min Rain = 0
KWOS 100015Z 31002KT M01/M02 A3034 RMK A01 T10051023  RH  088%=      5-min Rain = 0
KWOS 100020Z 30002KT M01/M02 A3034 RMK A01 T10051023  RH  088%=      5-min Rain = 0
KWOS 100025Z 30001KT M01/M02 A3034 RMK A01 T10061023  RH  089%=      5-min Rain = 0
KWOS 100030Z 29001KT M00/M02 A3034 RMK A01 T10031021  RH  089%=      5-min Rain = 0
KWOS 100035Z 28001KT M00/M02 A3034 RMK A01 T10021023  RH  086%=      5-min Rain = 0
KWOS 100040Z 28001KT M00/M03 A3034 RMK A01 T10041026  RH  086%=      5-min Rain = 0
KWOS 100045Z 27002KT M01/M03 A3034 RMK A01 T10071026  RH  087%=      5-min Rain = 0
KWOS 100050Z 26002KT M01/M03 A3034 RMK A01 T10091026  RH  089%=      5-min Rain = 0
KWOS 100055Z 25002KT M01/M03 A3034 RMK A01 T10121027  RH  090%=      5-min Rain = 0
KWOS 100100Z 25002KT M01/M03 A3034 RMK A01 T10141027  RH  091%=      5-min Rain = 0
KWOS 100105Z 25002KT M01/M02 A3034 RMK A01 T10121023  RH  093%=      5-min Rain = 0
KWOS 100110Z 23002KT M02/M03 A3034 RMK A01 T10151027  RH  092%=      5-min Rain = 0
KWOS 100115Z 20004KT M02/M03 A3034 RMK A01 T10181028  RH  093%=      5-min Rain = 0
KWOS 100120Z 21004KT M02/M03 A3034 RMK A01 T10171026  RH  094%=      5-min Rain = 0
KWOS 100125Z 20004KT M02/M03 A3034 RMK A01 T10171028  RH  093%=      5-min Rain = 0
KWOS 100130Z 22003KT M02/M03 A3035 RMK A01 T10181029  RH  093%=      5-min Rain = 0
KWOS 100135Z 23003KT M02/M03 A3036 RMK A01 T10201031  RH  093%=      5-min Rain = 0
KWOS 100140Z 24003KT M02/M03 A3036 RMK A01 T10201030  RH  093%=      5-min Rain = 0
KWOS 100145Z 25003KT M02/M03 A3036 RMK A01 T10211030  RH  094%=      5-min Rain = 0
KWOS 100150Z 25003KT M02/M03 A3036 RMK A01 T10221030  RH  094%=      5-min Rain = 0
KWOS 100155Z 27002KT M03/M03 A3036 RMK A01 T10261034  RH  094%=      5-min Rain = 0
KWOS 100200Z 27002KT M03/M04 A3036 RMK A01 T10271035  RH  095%=      5-min Rain = 0
KWOS 100205Z 27002KT M03/M04 A3036 RMK A01 T10291036  RH  095%=      5-min Rain = 0
KWOS 100210Z 27002KT M03/M04 A3036 RMK A01 T10311038  RH  095%=      5-min Rain = 0
KWOS 100215Z 26003KT M03/M04 A3036 RMK A01 T10301036  RH  096%=      5-min Rain = 0
KWOS 100220Z 27003KT M03/M04 A3037 RMK A01 T10291035  RH  096%=      5-min Rain = 0
KWOS 100225Z 27003KT M03/M03 A3037 RMK A01 T10291034  RH  097%=      5-min Rain = 0
KWOS 100230Z 27003KT M03/M03 A3037 RMK A01 T10271032  RH  097%=      5-min Rain = 0
KWOS 100235Z 27004KT M03/M03 A3037 RMK A01 T10271032  RH  097%=      5-min Rain = 0
KWOS 100240Z 27005KT M03/M03 A3037 RMK A01 T10271032  RH  097%=      5-min Rain = 0
KWOS 100245Z 27005KT M03/M03 A3037 RMK A01 T10281033  RH  097%=      5-min Rain = 0
KWOS 100250Z 29005KT M03/M03 A3037 RMK A01 T10291034  RH  097%=      5-min Rain = 0
KWOS 100255Z 28005KT M03/M03 A3037 RMK A01 T10281033  RH  097%=      5-min Rain = 0
KWOS 100300Z 27005KT M03/M03 A3037 RMK A01 T10291033  RH  097%=      5-min Rain = 0
KWOS 100305Z 27005KT M03/M03 A3037 RMK A01 T10291033  RH  097%=      5-min Rain = 0
KWOS 100310Z 28005KT M03/M03 A3038 RMK A01 T10281032  RH  098%=      5-min Rain = 0
KWOS 100315Z 28005KT M03/M03 A3038 RMK A01 T10291033  RH  097%=      5-min Rain = 0
KWOS 100320Z 29005KT M03/M03 A3038 RMK A01 T10301034  RH  097%=      5-min Rain = 0
KWOS 100325Z 29006KT M03/M03 A3038 RMK A01 T10301034  RH  097%=      5-min Rain = 0
KWOS 100330Z 28006KT M03/M03 A3038 RMK A01 T10291033  RH  098%=      5-min Rain = 0
KWOS 100335Z 29006KT M03/M03 A3038 RMK A01 T10291033  RH  097%=      5-min Rain = 0
KWOS 100340Z 29007KT M03/M03 A3038 RMK A01 T10291034  RH  097%=      5-min Rain = 0
KWOS 100345Z 29006KT M03/M03 A3038 RMK A01 T10301034  RH  097%=      5-min Rain = 0
KWOS 100350Z 29005KT M03/M04 A3038 RMK A01 T10301035  RH  097%=      5-min Rain = 0
KWOS 100355Z 28005KT M03/M04 A3038 RMK A01 T10311036  RH  097%=      5-min Rain = 0
KWOS 100400Z 27005KT M03/M04 A3038 RMK A01 T10331038  RH  097%=      5-min Rain = 0
KWOS 100405Z 27005KT M03/M04 A3037 RMK A01 T10331038  RH  097%=      5-min Rain = 0
KWOS 100410Z 27006KT M03/M04 A3038 RMK A01 T10331038  RH  097%=      5-min Rain = 0
KWOS 100415Z 28006KT M03/M04 A3038 RMK A01 T10331038  RH  097%=      5-min Rain = 0
KWOS 100420Z 27006KT M03/M04 A3038 RMK A01 T10341039  RH  097%=      5-min Rain = 0
KWOS 100425Z 27005KT M03/M04 A3038 RMK A01 T10341040  RH  097%=      5-min Rain = 0
KWOS 100430Z 28005KT M03/M04 A3038 RMK A01 T10331038  RH  097%=      5-min Rain = 0
KWOS 100435Z 28006KT M03/M04 A3038 RMK A01 T10321036  RH  097%=      5-min Rain = 0
KWOS 100440Z 28007KT M03/M03 A3038 RMK A01 T10291034  RH  097%=      5-min Rain = 0
KWOS 100445Z 28007KT M03/M03 A3038 RMK A01 T10281032  RH  097%=      5-min Rain = 0
KWOS 100450Z 29007KT M03/M03 A3038 RMK A01 T10261031  RH  097%=      5-min Rain = 0
KWOS 100455Z 29006KT M03/M03 A3038 RMK A01 T10251030  RH  097%=      5-min Rain = 0
KWOS 100500Z 29005KT M02/M03 A3038 RMK A01 T10241030  RH  096%=      5-min Rain = 0
KWOS 100505Z 29005KT M03/M03 A3038 RMK A01 T10251031  RH  096%=      5-min Rain = 0
KWOS 100510Z 29005KT M03/M03 A3038 RMK A01 T10261033  RH  096%=      5-min Rain = 0
KWOS 100515Z 29006KT M03/M04 A3038 RMK A01 T10281035  RH  096%=      5-min Rain = 0
KWOS 100520Z 29005KT M03/M04 A3038 RMK A01 T10281035  RH  096%=      5-min Rain = 0
KWOS 100525Z 30005KT M03/M04 A3038 RMK A01 T10281035  RH  096%=      5-min Rain = 0
KWOS 100530Z 29005KT M03/M03 A3038 RMK A01 T10281034  RH  096%=      5-min Rain = 0
KWOS 100535Z 29005KT M03/M04 A3038 RMK A01 T10281035  RH  095%=      5-min Rain = 0
KWOS 100540Z 28005KT M03/M04 A3037 RMK A01 T10301038  RH  095%=      5-min Rain = 0
KWOS 100545Z 27005KT M03/M04 A3038 RMK A01 T10321040  RH  095%=      5-min Rain = 0
KWOS 100550Z 27005KT M04/M04 A3038 RMK A01 T10351043  RH  095%=      5-min Rain = 0
KWOS 100555Z 27005KT M04/M04 A3038 RMK A01 T10371044  RH  095%=      5-min Rain = 0

Page generated in 0.0199 seconds.